Terminal Aerodrome Forecast
Issued by NWS

Home | Current Version | Previous Version | Text Only | Print | Product List | Glossary On
Versions: 1 2 3 4 5 6 7 8 9 10 11 12 13 14 15 16
000
FTUS44 KSJT 291200 AAA
TAFJCT
TAF AMD
KJCT 291227Z 2912/3012 14005KT P6SM VCSH SCT020 BKN070
      TEMPO 2912/2914 08006KT P6SM BKN020
     FM291400 15007KT P6SM FEW060 SCT100=

USA.gov is the U.S. government's official web portal to all federal, state and local government web resources and services.